createdAt,value
2019-01-10T00:09:18.498Z,93.3
2019-01-10T00:24:29.849Z,93.5
2019-01-10T00:39:41.123Z,92.8
2019-01-10T00:54:52.455Z,92.9
2019-01-10T01:10:03.687Z,91.5
2019-01-10T01:25:14.005Z,92.3
2019-01-10T01:40:26.198Z,92.3
2019-01-10T01:55:37.559Z,92.6
2019-01-10T02:10:48.840Z,92.7
2019-01-10T02:25:55.139Z,92.7
2019-01-10T02:41:11.612Z,92.9
2019-01-10T02:56:22.975Z,91.3
2019-01-10T03:11:34.348Z,91.1
2019-01-10T03:26:45.581Z,91
2019-01-10T03:41:56.978Z,90.3
2019-01-10T03:57:08.387Z,91.2
2019-01-10T04:12:19.915Z,89.6
2019-01-10T04:27:31.193Z,90
2019-01-10T04:42:42.595Z,89.7
2019-01-10T04:57:53.962Z,89.2
2019-01-10T05:13:05.312Z,89.5
2019-01-10T05:28:16.615Z,90.7
2019-01-10T05:43:23.790Z,90.8
2019-01-10T05:58:39.105Z,91
2019-01-10T06:13:50.310Z,91.9
2019-01-10T06:29:01.549Z,92.1
2019-01-10T06:44:04.299Z,92.7
2019-01-10T06:59:23.960Z,93.4
2019-01-10T07:14:35.019Z,91.8
2019-01-10T07:29:46.383Z,92.1
2019-01-10T07:45:03.212Z,92.4
2019-01-10T08:00:08.608Z,92.5
2019-01-10T08:15:19.829Z,92
2019-01-10T08:30:31.136Z,92.4
2019-01-10T08:45:42.219Z,91.4
2019-01-10T09:00:50.148Z,91.7
2019-01-10T09:16:04.632Z,91.1
2019-01-10T09:31:15.763Z,86.8
2019-01-10T09:46:27.167Z,87.8
2019-01-10T10:01:30.113Z,85.1
2019-01-10T10:16:49.616Z,85.2
2019-01-10T10:32:00.936Z,78.4
2019-01-10T10:47:12.307Z,80.1
2019-01-10T11:02:23.756Z,77.1
2019-01-10T11:17:34.956Z,77.6
2019-01-10T11:32:46.470Z,75.4
2019-01-10T11:47:57.968Z,72
2019-01-10T12:03:09.326Z,70.6
2019-01-10T12:18:17.122Z,75.7
2019-01-10T12:33:32.275Z,74.3
2019-01-10T12:48:43.572Z,75.3
2019-01-10T13:03:55.119Z,76
2019-01-10T13:18:58.261Z,82.3
2019-01-10T13:34:17.424Z,81.4
2019-01-10T13:49:28.551Z,78.5
2019-01-10T14:04:39.739Z,80.7
2019-01-10T14:19:50.897Z,75.2
2019-01-10T14:35:02.095Z,75.7
2019-01-10T14:50:13.259Z,76.8
2019-01-10T15:05:24.428Z,76.1
2019-01-10T15:20:35.512Z,77.9
2019-01-10T15:35:44.702Z,78.8
2019-01-10T15:50:57.769Z,78.2
2019-01-10T16:06:08.578Z,77.1
2019-01-10T16:21:19.573Z,77.4
2019-01-10T16:36:24.766Z,76.2
2019-01-10T16:51:41.577Z,77.3
2019-01-10T17:06:52.638Z,74
2019-01-10T17:22:03.454Z,74.8
2019-01-10T17:37:14.404Z,75.7
2019-01-10T17:52:25.452Z,77
2019-01-10T18:07:36.273Z,76.6
2019-01-10T18:22:47.329Z,74.5
2019-01-10T18:37:57.922Z,74.4
2019-01-10T18:53:09.500Z,74
2019-01-10T19:08:19.717Z,73.5
2019-01-10T19:23:30.496Z,73.5
2019-01-10T19:38:41.317Z,73.8
2019-01-10T19:53:49.386Z,73
2019-01-10T20:09:03.067Z,72.2
2019-01-10T20:24:13.515Z,72.1
2019-01-10T20:39:24.373Z,71.1
2019-01-10T20:54:28.674Z,71.3
2019-01-10T21:09:45.845Z,70.4
2019-01-10T21:24:56.698Z,70
2019-01-10T21:40:07.405Z,72.6
2019-01-10T21:55:18.998Z,63.7
2019-01-10T22:10:30.099Z,65.2
2019-01-10T22:25:40.912Z,67.5
2019-01-10T22:40:51.745Z,64.5
2019-01-10T22:56:02.527Z,64.4
2019-01-10T23:11:11.887Z,63.5
2019-01-10T23:26:23.942Z,63.8
2019-01-10T23:41:34.657Z,66.4
2019-01-10T23:56:45.392Z,66.2
